Necker Belle — MKYK7 — position and weather

sailwx.info

Track history (hours):
 
Tides and Currents Weather Stations Pressure Air Temp Water Temp Dewpoint Dewpoint Depression Visibility Wind Speed Wind Dir Waves Ship Positions

Necker Belle

Last reported at 2018-Jan-21 07:34 UTC. Time now 2018-Feb-24 18:27 UTC.
Position N 17°53' W 063°19'.
Warning: this ship's position is 34 days out of date.

Length 32 m.

Type: Sailing vessel. MMSI: 232728000.

Date/timePositionNaut miles runAvg speedWind from/ knotsBaromVisibWave heightAir tempDewpointWater temp
2018-Jan-21 07:34N 17°53' W 063°19'3 8.7
2018-Jan-21 07:13N 17°51' W 063°16'3 8.8
2018-Jan-21 06:54N 17°50' W 063°14'3 8.9
2018-Jan-21 06:31N 17°48' W 063°11'5 9.2
2018-Jan-21 06:00N 17°45' W 063°06'5 9.0
2018-Jan-21 05:23N 17°42' W 063°01'4 9.0
2018-Jan-21 04:59N 17°40' W 062°58'4 9.2
2018-Jan-21 04:30N 17°38' W 062°54'39 9.3
2018-Jan-21 00:21N 17°17' W 062°21'3 9.1
2018-Jan-21 00:00N 17°15' W 062°18'4 9.1
2018-Jan-20 23:31N 17°12' W 062°14'4 8.8
2018-Jan-20 23:01N 17°10' W 062°10'4 8.5
2018-Jan-20 22:30N 17°08' W 062°07'4 8.6
2018-Jan-20 22:00N 17°05' W 062°03'7 7.3
2018-Jan-20 21:01N 17°01' W 061°57'4 7.9
2018-Jan-20 20:31N 16°59' W 061°53'4 7.8
2018-Jan-20 20:01N 16°60' W 061°49'2 3.6
2018-Jan-20 19:28N 17°01' W 061°47'0 0.1
2018-Jan-20 18:58N 17°01' W 061°47'1 1.4
2018-Jan-20 18:30N 17°01' W 061°46'0 0.3
2018-Jan-20 18:00N 17°01' W 061°46'0 0.0
2018-Jan-20 17:30N 17°01' W 061°46'0 0.0
2018-Jan-20 17:00N 17°01' W 061°46'0 0.0
2018-Jan-20 16:30N 17°01' W 061°46'0 0.0
2018-Jan-20 16:00N 17°01' W 061°46'0 0.0
2018-Jan-20 15:30N 17°01' W 061°46'0 0.0
2018-Jan-20 15:00N 17°01' W 061°46'0 0.0
2018-Jan-20 14:30N 17°01' W 061°46'0 0.0
2018-Jan-20 14:00N 17°01' W 061°46'0 0.0
2018-Jan-20 13:30N 17°01' W 061°46'0 0.0
2018-Jan-20 13:00N 17°01' W 061°46'0 0.0
2018-Jan-20 12:30N 17°01' W 061°46'0 0.0
2018-Jan-20 12:00N 17°01' W 061°46'0 0.0
2018-Jan-20 11:30N 17°01' W 061°46'0 0.0
2018-Jan-20 11:00N 17°01' W 061°46'0 0.0
2018-Jan-20 10:30N 17°01' W 061°46'0 0.0
2018-Jan-20 10:00N 17°01' W 061°46'0 0.0
2018-Jan-20 09:30N 17°01' W 061°46'0 0.0
2018-Jan-20 09:00N 17°01' W 061°46'0 0.0
2018-Jan-20 08:30N 17°01' W 061°46'0 0.0
2018-Jan-20 08:00N 17°01' W 061°46'0 0.0
2018-Jan-20 07:30N 17°01' W 061°46'0 0.0
2018-Jan-20 07:00N 17°01' W 061°46'0 0.0
2018-Jan-20 06:30N 17°01' W 061°46'0 0.0
2018-Jan-20 06:00N 17°01' W 061°46'0 0.0
2018-Jan-20 05:30N 17°01' W 061°46'0 0.0
2018-Jan-20 05:00N 17°01' W 061°46'0 0.0
2018-Jan-20 04:30N 17°01' W 061°46'0 0.0
2018-Jan-20 04:00N 17°01' W 061°46'0 0.0
2018-Jan-20 03:30N 17°01' W 061°46'0 0.0
2018-Jan-20 03:00N 17°01' W 061°46'0 0.0
2018-Jan-20 02:30N 17°01' W 061°46'0 0.0
2018-Jan-20 02:00N 17°01' W 061°46'0 0.0
2018-Jan-20 01:30N 17°01' W 061°46'0 0.0
2018-Jan-20 01:00N 17°01' W 061°46'0 0.0
2018-Jan-20 00:30N 17°01' W 061°46'0 0.0
2018-Jan-20 00:00N 17°01' W 061°46'0 0.0
2018-Jan-19 23:30N 17°01' W 061°46'0 0.0
2018-Jan-19 23:00N 17°01' W 061°46'0 0.0
2018-Jan-19 22:30N 17°01' W 061°46'0 0.0
2018-Jan-19 22:00N 17°01' W 061°46'0 0.0
2018-Jan-19 21:30N 17°01' W 061°46'0 0.0
2018-Jan-19 21:00N 17°01' W 061°46'0 0.0
2018-Jan-19 20:30N 17°01' W 061°46'0 0.0
2018-Jan-19 20:00N 17°01' W 061°46'0 0.0
2018-Jan-19 19:30N 17°01' W 061°46'0 0.0
2018-Jan-19 19:00N 17°01' W 061°46'0 0.0
2018-Jan-19 18:30N 17°01' W 061°46'0 0.0
2018-Jan-19 18:00N 17°01' W 061°46'0 0.0
2018-Jan-19 17:30N 17°01' W 061°46'0 0.0
2018-Jan-19 17:00N 17°01' W 061°46'0 0.0
2018-Jan-19 16:30N 17°01' W 061°46'0 0.0
2018-Jan-19 16:00N 17°01' W 061°46'0 0.0
2018-Jan-19 15:30N 17°01' W 061°46'0 0.0
2018-Jan-19 15:00N 17°01' W 061°46'0 0.0
2018-Jan-19 14:30N 17°01' W 061°46'0 0.0
2018-Jan-19 14:00N 17°01' W 061°46'0 0.0
2018-Jan-19 13:30N 17°01' W 061°46'0 0.0
2018-Jan-19 13:00N 17°01' W 061°46'0 0.0
2018-Jan-19 12:30N 17°01' W 061°46'0 0.0
2018-Jan-19 12:00N 17°01' W 061°46'0 0.0
2018-Jan-19 11:30N 17°01' W 061°46'0 0.0
2018-Jan-19 11:00N 17°01' W 061°46'0 0.0
2018-Jan-19 10:30N 17°01' W 061°46'0 0.0
2018-Jan-19 10:00N 17°01' W 061°46'0 0.0
2018-Jan-19 09:30N 17°01' W 061°46'0 0.0
2018-Jan-19 09:00N 17°01' W 061°46'0 0.0
2018-Jan-19 08:30N 17°01' W 061°46'0 0.0
2018-Jan-19 08:00N 17°01' W 061°46'0 0.0
2018-Jan-19 07:30N 17°01' W 061°46'0 0.0
2018-Jan-19 07:00N 17°01' W 061°46'0 0.0
2018-Jan-19 06:30N 17°01' W 061°46'0 0.0
2018-Jan-19 06:00N 17°01' W 061°46'0 0.0
2018-Jan-19 05:30N 17°01' W 061°46'0 0.0
2018-Jan-19 05:00N 17°01' W 061°46'0 0.0
2018-Jan-19 04:30N 17°01' W 061°46'0 0.0
2018-Jan-19 04:00N 17°01' W 061°46'0 0.0
2018-Jan-19 03:30N 17°01' W 061°46'0 0.0
2018-Jan-19 03:00N 17°01' W 061°46'0 0.0
2018-Jan-19 02:30N 17°01' W 061°46'0 0.0
2018-Jan-19 02:00N 17°01' W 061°46'0 0.0
2018-Jan-19 01:30N 17°01' W 061°46'0 0.0
2018-Jan-19 01:00N 17°01' W 061°46'0 0.0
2018-Jan-19 00:30N 17°01' W 061°46'0 0.0
2018-Jan-19 00:00N 17°01' W 061°46'0 0.0
2018-Jan-18 23:30N 17°01' W 061°46'0 0.0
2018-Jan-18 23:00N 17°01' W 061°46'0 0.0
2018-Jan-18 22:30N 17°01' W 061°46'0 0.0
2018-Jan-18 22:00N 17°01' W 061°46'0 0.0
2018-Jan-18 21:30N 17°01' W 061°46'0 0.0
2018-Jan-18 21:00N 17°01' W 061°46'0 0.0
2018-Jan-18 20:30N 17°01' W 061°46'0 0.0
2018-Jan-18 20:00N 17°01' W 061°46'0 0.0
2018-Jan-18 19:30N 17°01' W 061°46'0 0.0
2018-Jan-18 19:00N 17°01' W 061°46'0 0.0
2018-Jan-18 18:30N 17°01' W 061°46'0 0.0
2018-Jan-18 18:00N 17°01' W 061°46'0 0.0
2018-Jan-18 17:30N 17°01' W 061°46'0 0.0
2018-Jan-18 17:00N 17°01' W 061°46'0 0.0
2018-Jan-18 16:30N 17°01' W 061°46'0 0.0
2018-Jan-18 16:00N 17°01' W 061°46'0 0.0
2018-Jan-18 15:30N 17°01' W 061°46'0 0.0
2018-Jan-18 15:00N 17°01' W 061°46'0 0.2
2018-Jan-18 14:29N 17°01' W 061°46'0 0.8
2018-Jan-18 14:00N 17°01' W 061°47'0 0.0
2018-Jan-18 13:30N 17°01' W 061°47'0 0.0
2018-Jan-18 13:00N 17°01' W 061°47'0 0.0
2018-Jan-18 12:30N 17°01' W 061°47'0 0.0
2018-Jan-18 12:00N 17°01' W 061°47'0 0.0
2018-Jan-18 11:30N 17°01' W 061°47'0 0.0
2018-Jan-18 11:00N 17°01' W 061°47'0 0.0
2018-Jan-18 10:30N 17°01' W 061°47'0 0.0
2018-Jan-18 09:57N 17°01' W 061°47'0 0.0
2018-Jan-18 09:30N 17°01' W 061°47'0 0.0
2018-Jan-18 09:00N 17°01' W 061°47'0 0.0
2018-Jan-18 08:30N 17°01' W 061°47'0 0.0
2018-Jan-18 08:00N 17°01' W 061°47'0 0.0
2018-Jan-18 07:30N 17°01' W 061°47'0 0.0
2018-Jan-18 07:00N 17°01' W 061°47'0 0.0
2018-Jan-18 06:30N 17°01' W 061°47'0 0.0
2018-Jan-18 06:00N 17°01' W 061°47'0 0.0
2018-Jan-18 05:30N 17°01' W 061°47'0 0.0
2018-Jan-18 05:00N 17°01' W 061°47'0 0.0
2018-Jan-18 04:30N 17°01' W 061°47'0 0.0
2018-Jan-18 04:00N 17°01' W 061°47'0 0.0
2018-Jan-18 03:30N 17°01' W 061°47'0 0.0
2018-Jan-18 03:00N 17°01' W 061°47'0 0.0
2018-Jan-18 02:30N 17°01' W 061°47'0 0.0
2018-Jan-18 02:00N 17°01' W 061°47'0 0.0
2018-Jan-18 01:30N 17°01' W 061°47'0 0.0
2018-Jan-18 01:00N 17°01' W 061°47'0 0.0
2018-Jan-18 00:00N 17°01' W 061°47'0 0.0
2018-Jan-17 23:57N 17°01' W 061°47'  
2018-Jan-12 14:58N 17°01' W 061°47'0 0.0
2018-Jan-12 14:28N 17°01' W 061°47'0 0.0
2018-Jan-12 13:58N 17°01' W 061°47'0 0.0
2018-Jan-12 13:28N 17°01' W 061°47'0 0.0
2018-Jan-12 12:58N 17°01' W 061°47'0 0.0
2018-Jan-12 12:28N 17°01' W 061°47'0 0.0
2018-Jan-12 11:58N 17°01' W 061°47'0 0.0
2018-Jan-12 11:28N 17°01' W 061°47'0 0.0
2018-Jan-12 10:58N 17°01' W 061°47'0 0.0
2018-Jan-12 10:28N 17°01' W 061°47'0 0.0
2018-Jan-12 09:58N 17°01' W 061°47'0 0.0
2018-Jan-12 09:28N 17°01' W 061°47'0 0.0
2018-Jan-12 08:58N 17°01' W 061°47'0 0.0
2018-Jan-12 08:28N 17°01' W 061°47'0 0.0
2018-Jan-12 07:58N 17°01' W 061°47'0 0.0
2018-Jan-12 07:28N 17°01' W 061°47'0 0.0
2018-Jan-12 06:58N 17°01' W 061°47'0 0.0
2018-Jan-12 06:28N 17°01' W 061°47'0 0.0
2018-Jan-12 05:58N 17°01' W 061°47'0 0.0
2018-Jan-12 05:28N 17°01' W 061°47'0 0.0
2018-Jan-12 04:58N 17°01' W 061°47'0 0.0
2018-Jan-12 04:28N 17°01' W 061°47'0 0.0
2018-Jan-12 03:58N 17°01' W 061°47'0 0.0
2018-Jan-12 03:28N 17°01' W 061°47'0 0.0
2018-Jan-12 02:58N 17°01' W 061°47'0 0.0
2018-Jan-12 02:28N 17°01' W 061°47'0 0.0
2018-Jan-12 01:58N 17°01' W 061°47'0 0.0
2018-Jan-12 01:28N 17°01' W 061°47'0 0.0
2018-Jan-12 00:59N 17°01' W 061°47'0 0.0
2018-Jan-12 00:28N 17°01' W 061°47'0 0.0
2018-Jan-11 23:58N 17°01' W 061°47'0 0.0
2018-Jan-11 23:28N 17°01' W 061°47'0 0.0
2018-Jan-11 22:58N 17°01' W 061°47'0 0.0
2018-Jan-11 22:28N 17°01' W 061°47'0 0.0
2018-Jan-11 21:58N 17°01' W 061°47'0 0.0
2018-Jan-11 21:28N 17°01' W 061°47'0 0.0
2018-Jan-11 20:58N 17°01' W 061°47'0 0.0
2018-Jan-11 20:28N 17°01' W 061°47'0 0.0
2018-Jan-11 19:58N 17°01' W 061°47'0 0.0
2018-Jan-11 19:25N 17°01' W 061°47'0 0.0
2018-Jan-11 18:58N 17°01' W 061°47'0 0.0
2018-Jan-11 18:28N 17°01' W 061°47'0 0.0
2018-Jan-11 17:58N 17°01' W 061°47'0 0.0
2018-Jan-11 17:28N 17°01' W 061°47'0 0.0
2018-Jan-11 16:58N 17°01' W 061°47'0 0.0
2018-Jan-11 16:28N 17°01' W 061°47'0 0.0
2018-Jan-11 15:58N 17°01' W 061°47'0 0.0
2018-Jan-11 15:28N 17°01' W 061°47'0 0.0
2018-Jan-11 14:58N 17°01' W 061°47'0 0.0
2018-Jan-11 14:28N 17°01' W 061°47'0 0.0
2018-Jan-11 13:55N 17°01' W 061°47'0 0.0
2018-Jan-11 13:30N 17°01' W 061°47'0 0.0
2018-Jan-11 13:00N 17°01' W 061°47'0 0.0
2018-Jan-11 12:30N 17°01' W 061°47'0 0.0
2018-Jan-11 12:00N 17°01' W 061°47'0 0.0
2018-Jan-11 11:30N 17°01' W 061°47'0 0.0
2018-Jan-11 11:00N 17°01' W 061°47'0 0.0
2018-Jan-11 10:30N 17°01' W 061°47'0 0.0
2018-Jan-11 10:00N 17°01' W 061°47'0 0.0
2018-Jan-11 09:30N 17°01' W 061°47'0 0.0
2018-Jan-11 09:00N 17°01' W 061°47'0 0.0
2018-Jan-11 08:30N 17°01' W 061°47'0 0.0
2018-Jan-11 08:00N 17°01' W 061°47'  
Track history (hours):
 
Tides and Currents Weather Stations Pressure Air Temp Water Temp Dewpoint Dewpoint Depression Visibility Wind Speed Wind Dir Waves Ship Positions

Necker Belle

Last reported at 2018-Jan-21 07:34 UTC. Time now 2018-Feb-24 18:27 UTC.
Position N 17°53' W 063°19'.
Warning: this ship's position is 34 days out of date.

Length 32 m.

Type: Sailing vessel. MMSI: 232728000.

Date/timePositionNaut miles runAvg speedWind from/ knotsBaromVisibWave heightAir tempDewpointWater temp
2018-Jan-21 07:34N 17°53' W 063°19'3 8.7
2018-Jan-21 07:13N 17°51' W 063°16'3 8.8
2018-Jan-21 06:54N 17°50' W 063°14'3 8.9
2018-Jan-21 06:31N 17°48' W 063°11'5 9.2
2018-Jan-21 06:00N 17°45' W 063°06'5 9.0
2018-Jan-21 05:23N 17°42' W 063°01'4 9.0
2018-Jan-21 04:59N 17°40' W 062°58'4 9.2
2018-Jan-21 04:30N 17°38' W 062°54'39 9.3
2018-Jan-21 00:21N 17°17' W 062°21'3 9.1
2018-Jan-21 00:00N 17°15' W 062°18'4 9.1
2018-Jan-20 23:31N 17°12' W 062°14'4 8.8
2018-Jan-20 23:01N 17°10' W 062°10'4 8.5
2018-Jan-20 22:30N 17°08' W 062°07'4 8.6
2018-Jan-20 22:00N 17°05' W 062°03'7 7.3
2018-Jan-20 21:01N 17°01' W 061°57'4 7.9
2018-Jan-20 20:31N 16°59' W 061°53'4 7.8
2018-Jan-20 20:01N 16°60' W 061°49'2 3.6
2018-Jan-20 19:28N 17°01' W 061°47'0 0.1
2018-Jan-20 18:58N 17°01' W 061°47'1 1.4
2018-Jan-20 18:30N 17°01' W 061°46'0 0.3
2018-Jan-20 18:00N 17°01' W 061°46'0 0.0
2018-Jan-20 17:30N 17°01' W 061°46'0 0.0
2018-Jan-20 17:00N 17°01' W 061°46'0 0.0
2018-Jan-20 16:30N 17°01' W 061°46'0 0.0
2018-Jan-20 16:00N 17°01' W 061°46'0 0.0
2018-Jan-20 15:30N 17°01' W 061°46'0 0.0
2018-Jan-20 15:00N 17°01' W 061°46'0 0.0
2018-Jan-20 14:30N 17°01' W 061°46'0 0.0
2018-Jan-20 14:00N 17°01' W 061°46'0 0.0
2018-Jan-20 13:30N 17°01' W 061°46'0 0.0
2018-Jan-20 13:00N 17°01' W 061°46'0 0.0
2018-Jan-20 12:30N 17°01' W 061°46'0 0.0
2018-Jan-20 12:00N 17°01' W 061°46'0 0.0
2018-Jan-20 11:30N 17°01' W 061°46'0 0.0
2018-Jan-20 11:00N 17°01' W 061°46'0 0.0
2018-Jan-20 10:30N 17°01' W 061°46'0 0.0
2018-Jan-20 10:00N 17°01' W 061°46'0 0.0
2018-Jan-20 09:30N 17°01' W 061°46'0 0.0
2018-Jan-20 09:00N 17°01' W 061°46'0 0.0
2018-Jan-20 08:30N 17°01' W 061°46'0 0.0
2018-Jan-20 08:00N 17°01' W 061°46'0 0.0
2018-Jan-20 07:30N 17°01' W 061°46'0 0.0
2018-Jan-20 07:00N 17°01' W 061°46'0 0.0
2018-Jan-20 06:30N 17°01' W 061°46'0 0.0
2018-Jan-20 06:00N 17°01' W 061°46'0 0.0
2018-Jan-20 05:30N 17°01' W 061°46'0 0.0
2018-Jan-20 05:00N 17°01' W 061°46'0 0.0
2018-Jan-20 04:30N 17°01' W 061°46'0 0.0
2018-Jan-20 04:00N 17°01' W 061°46'0 0.0
2018-Jan-20 03:30N 17°01' W 061°46'0 0.0
2018-Jan-20 03:00N 17°01' W 061°46'0 0.0
2018-Jan-20 02:30N 17°01' W 061°46'0 0.0
2018-Jan-20 02:00N 17°01' W 061°46'0 0.0
2018-Jan-20 01:30N 17°01' W 061°46'0 0.0
2018-Jan-20 01:00N 17°01' W 061°46'0 0.0
2018-Jan-20 00:30N 17°01' W 061°46'0 0.0
2018-Jan-20 00:00N 17°01' W 061°46'0 0.0
2018-Jan-19 23:30N 17°01' W 061°46'0 0.0
2018-Jan-19 23:00N 17°01' W 061°46'0 0.0
2018-Jan-19 22:30N 17°01' W 061°46'0 0.0
2018-Jan-19 22:00N 17°01' W 061°46'0 0.0
2018-Jan-19 21:30N 17°01' W 061°46'0 0.0
2018-Jan-19 21:00N 17°01' W 061°46'0 0.0
2018-Jan-19 20:30N 17°01' W 061°46'0 0.0
2018-Jan-19 20:00N 17°01' W 061°46'0 0.0
2018-Jan-19 19:30N 17°01' W 061°46'0 0.0
2018-Jan-19 19:00N 17°01' W 061°46'0 0.0
2018-Jan-19 18:30N 17°01' W 061°46'0 0.0
2018-Jan-19 18:00N 17°01' W 061°46'0 0.0
2018-Jan-19 17:30N 17°01' W 061°46'0 0.0
2018-Jan-19 17:00N 17°01' W 061°46'0 0.0
2018-Jan-19 16:30N 17°01' W 061°46'0 0.0
2018-Jan-19 16:00N 17°01' W 061°46'0 0.0
2018-Jan-19 15:30N 17°01' W 061°46'0 0.0
2018-Jan-19 15:00N 17°01' W 061°46'0 0.0
2018-Jan-19 14:30N 17°01' W 061°46'0 0.0
2018-Jan-19 14:00N 17°01' W 061°46'0 0.0
2018-Jan-19 13:30N 17°01' W 061°46'0 0.0
2018-Jan-19 13:00N 17°01' W 061°46'0 0.0
2018-Jan-19 12:30N 17°01' W 061°46'0 0.0
2018-Jan-19 12:00N 17°01' W 061°46'0 0.0
2018-Jan-19 11:30N 17°01' W 061°46'0 0.0
2018-Jan-19 11:00N 17°01' W 061°46'0 0.0
2018-Jan-19 10:30N 17°01' W 061°46'0 0.0
2018-Jan-19 10:00N 17°01' W 061°46'0 0.0
2018-Jan-19 09:30N 17°01' W 061°46'0 0.0
2018-Jan-19 09:00N 17°01' W 061°46'0 0.0
2018-Jan-19 08:30N 17°01' W 061°46'0 0.0
2018-Jan-19 08:00N 17°01' W 061°46'0 0.0
2018-Jan-19 07:30N 17°01' W 061°46'0 0.0
2018-Jan-19 07:00N 17°01' W 061°46'0 0.0
2018-Jan-19 06:30N 17°01' W 061°46'0 0.0
2018-Jan-19 06:00N 17°01' W 061°46'0 0.0
2018-Jan-19 05:30N 17°01' W 061°46'0 0.0
2018-Jan-19 05:00N 17°01' W 061°46'0 0.0
2018-Jan-19 04:30N 17°01' W 061°46'0 0.0
2018-Jan-19 04:00N 17°01' W 061°46'0 0.0
2018-Jan-19 03:30N 17°01' W 061°46'0 0.0
2018-Jan-19 03:00N 17°01' W 061°46'0 0.0
2018-Jan-19 02:30N 17°01' W 061°46'0 0.0
2018-Jan-19 02:00N 17°01' W 061°46'0 0.0
2018-Jan-19 01:30N 17°01' W 061°46'0 0.0
2018-Jan-19 01:00N 17°01' W 061°46'0 0.0
2018-Jan-19 00:30N 17°01' W 061°46'0 0.0
2018-Jan-19 00:00N 17°01' W 061°46'0 0.0
2018-Jan-18 23:30N 17°01' W 061°46'0 0.0
2018-Jan-18 23:00N 17°01' W 061°46'0 0.0
2018-Jan-18 22:30N 17°01' W 061°46'0 0.0
2018-Jan-18 22:00N 17°01' W 061°46'0 0.0
2018-Jan-18 21:30N 17°01' W 061°46'0 0.0
2018-Jan-18 21:00N 17°01' W 061°46'0 0.0
2018-Jan-18 20:30N 17°01' W 061°46'0 0.0
2018-Jan-18 20:00N 17°01' W 061°46'0 0.0
2018-Jan-18 19:30N 17°01' W 061°46'0 0.0
2018-Jan-18 19:00N 17°01' W 061°46'0 0.0
2018-Jan-18 18:30N 17°01' W 061°46'0 0.0
2018-Jan-18 18:00N 17°01' W 061°46'0 0.0
2018-Jan-18 17:30N 17°01' W 061°46'0 0.0
2018-Jan-18 17:00N 17°01' W 061°46'0 0.0
2018-Jan-18 16:30N 17°01' W 061°46'0 0.0
2018-Jan-18 16:00N 17°01' W 061°46'0 0.0
2018-Jan-18 15:30N 17°01' W 061°46'0 0.0
2018-Jan-18 15:00N 17°01' W 061°46'0 0.2
2018-Jan-18 14:29N 17°01' W 061°46'0 0.8
2018-Jan-18 14:00N 17°01' W 061°47'0 0.0
2018-Jan-18 13:30N 17°01' W 061°47'0 0.0
2018-Jan-18 13:00N 17°01' W 061°47'0 0.0
2018-Jan-18 12:30N 17°01' W 061°47'0 0.0
2018-Jan-18 12:00N 17°01' W 061°47'0 0.0
2018-Jan-18 11:30N 17°01' W 061°47'0 0.0
2018-Jan-18 11:00N 17°01' W 061°47'0 0.0
2018-Jan-18 10:30N 17°01' W 061°47'0 0.0
2018-Jan-18 09:57N 17°01' W 061°47'0 0.0
2018-Jan-18 09:30N 17°01' W 061°47'0 0.0
2018-Jan-18 09:00N 17°01' W 061°47'0 0.0
2018-Jan-18 08:30N 17°01' W 061°47'0 0.0
2018-Jan-18 08:00N 17°01' W 061°47'0 0.0
2018-Jan-18 07:30N 17°01' W 061°47'0 0.0
2018-Jan-18 07:00N 17°01' W 061°47'0 0.0
2018-Jan-18 06:30N 17°01' W 061°47'0 0.0
2018-Jan-18 06:00N 17°01' W 061°47'0 0.0
2018-Jan-18 05:30N 17°01' W 061°47'0 0.0
2018-Jan-18 05:00N 17°01' W 061°47'0 0.0
2018-Jan-18 04:30N 17°01' W 061°47'0 0.0
2018-Jan-18 04:00N 17°01' W 061°47'0 0.0
2018-Jan-18 03:30N 17°01' W 061°47'0 0.0
2018-Jan-18 03:00N 17°01' W 061°47'0 0.0
2018-Jan-18 02:30N 17°01' W 061°47'0 0.0
2018-Jan-18 02:00N 17°01' W 061°47'0 0.0
2018-Jan-18 01:30N 17°01' W 061°47'0 0.0
2018-Jan-18 01:00N 17°01' W 061°47'0 0.0
2018-Jan-18 00:00N 17°01' W 061°47'0 0.0
2018-Jan-17 23:57N 17°01' W 061°47'  
2018-Jan-12 14:58N 17°01' W 061°47'0 0.0
2018-Jan-12 14:28N 17°01' W 061°47'0 0.0
2018-Jan-12 13:58N 17°01' W 061°47'0 0.0
2018-Jan-12 13:28N 17°01' W 061°47'0 0.0
2018-Jan-12 12:58N 17°01' W 061°47'0 0.0
2018-Jan-12 12:28N 17°01' W 061°47'0 0.0
2018-Jan-12 11:58N 17°01' W 061°47'0 0.0
2018-Jan-12 11:28N 17°01' W 061°47'0 0.0
2018-Jan-12 10:58N 17°01' W 061°47'0 0.0
2018-Jan-12 10:28N 17°01' W 061°47'0 0.0
2018-Jan-12 09:58N 17°01' W 061°47'0 0.0
2018-Jan-12 09:28N 17°01' W 061°47'0 0.0
2018-Jan-12 08:58N 17°01' W 061°47'0 0.0
2018-Jan-12 08:28N 17°01' W 061°47'0 0.0
2018-Jan-12 07:58N 17°01' W 061°47'0 0.0
2018-Jan-12 07:28N 17°01' W 061°47'0 0.0
2018-Jan-12 06:58N 17°01' W 061°47'0 0.0
2018-Jan-12 06:28N 17°01' W 061°47'0 0.0
2018-Jan-12 05:58N 17°01' W 061°47'0 0.0
2018-Jan-12 05:28N 17°01' W 061°47'0 0.0
2018-Jan-12 04:58N 17°01' W 061°47'0 0.0
2018-Jan-12 04:28N 17°01' W 061°47'0 0.0
2018-Jan-12 03:58N 17°01' W 061°47'0 0.0
2018-Jan-12 03:28N 17°01' W 061°47'0 0.0
2018-Jan-12 02:58N 17°01' W 061°47'0 0.0
2018-Jan-12 02:28N 17°01' W 061°47'0 0.0
2018-Jan-12 01:58N 17°01' W 061°47'0 0.0
2018-Jan-12 01:28N 17°01' W 061°47'0 0.0
2018-Jan-12 00:59N 17°01' W 061°47'0 0.0
2018-Jan-12 00:28N 17°01' W 061°47'0 0.0
2018-Jan-11 23:58N 17°01' W 061°47'0 0.0
2018-Jan-11 23:28N 17°01' W 061°47'0 0.0
2018-Jan-11 22:58N 17°01' W 061°47'0 0.0
2018-Jan-11 22:28N 17°01' W 061°47'0 0.0
2018-Jan-11 21:58N 17°01' W 061°47'0 0.0
2018-Jan-11 21:28N 17°01' W 061°47'0 0.0
2018-Jan-11 20:58N 17°01' W 061°47'0 0.0
2018-Jan-11 20:28N 17°01' W 061°47'0 0.0
2018-Jan-11 19:58N 17°01' W 061°47'0 0.0
2018-Jan-11 19:25N 17°01' W 061°47'0 0.0
2018-Jan-11 18:58N 17°01' W 061°47'0 0.0
2018-Jan-11 18:28N 17°01' W 061°47'0 0.0
2018-Jan-11 17:58N 17°01' W 061°47'0 0.0
2018-Jan-11 17:28N 17°01' W 061°47'0 0.0
2018-Jan-11 16:58N 17°01' W 061°47'0 0.0
2018-Jan-11 16:28N 17°01' W 061°47'0 0.0
2018-Jan-11 15:58N 17°01' W 061°47'0 0.0
2018-Jan-11 15:28N 17°01' W 061°47'0 0.0
2018-Jan-11 14:58N 17°01' W 061°47'0 0.0
2018-Jan-11 14:28N 17°01' W 061°47'0 0.0
2018-Jan-11 13:55N 17°01' W 061°47'0 0.0
2018-Jan-11 13:30N 17°01' W 061°47'0 0.0
2018-Jan-11 13:00N 17°01' W 061°47'0 0.0
2018-Jan-11 12:30N 17°01' W 061°47'0 0.0
2018-Jan-11 12:00N 17°01' W 061°47'0 0.0
2018-Jan-11 11:30N 17°01' W 061°47'0 0.0
2018-Jan-11 11:00N 17°01' W 061°47'0 0.0
2018-Jan-11 10:30N 17°01' W 061°47'0 0.0
2018-Jan-11 10:00N 17°01' W 061°47'0 0.0
2018-Jan-11 09:30N 17°01' W 061°47'0 0.0
2018-Jan-11 09:00N 17°01' W 061°47'0 0.0
2018-Jan-11 08:30N 17°01' W 061°47'0 0.0
2018-Jan-11 08:00N 17°01' W 061°47'  

Dump ship's entire track history